sensor_id;sensor_type;location;lat;lon;timestamp;temperature;humidity
8400;DHT22;4237;47.030;15.396;2024-01-11T00:00:04;-6.50;99.90
8400;DHT22;4237;47.030;15.396;2024-01-11T00:02:33;-5.50;99.90
8400;DHT22;4237;47.030;15.396;2024-01-11T00:05:02;-6.50;99.90
8400;DHT22;4237;47.030;15.396;2024-01-11T00:07:30;-6.40;99.90
8400;DHT22;4237;47.030;15.396;2024-01-11T00:10:01;-6.40;99.90
8400;DHT22;4237;47.030;15.396;2024-01-11T00:12:29;-6.50;99.90
8400;DHT22;4237;47.030;15.396;2024-01-11T00:14:59;-5.60;99.90
8400;DHT22;4237;47.030;15.396;2024-01-11T00:17:27;-6.50;99.90
8400;DHT22;4237;47.030;15.396;2024-01-11T00:19:56;-6.60;99.90
8400;DHT22;4237;47.030;15.396;2024-01-11T00:22:24;-6.60;99.90
8400;DHT22;4237;47.030;15.396;2024-01-11T00:24:53;-6.60;99.90
8400;DHT22;4237;47.030;15.396;2024-01-11T00:27:22;-6.70;99.90
8400;DHT22;4237;47.030;15.396;2024-01-11T00:29:50;-7.20;99.90
8400;DHT22;4237;47.030;15.396;2024-01-11T00:32:19;-6.70;99.90
8400;DHT22;4237;47.030;15.396;2024-01-11T00:34:48;-6.70;99.90
8400;DHT22;4237;47.030;15.396;2024-01-11T00:37:17;-6.60;99.90
8400;DHT22;4237;47.030;15.396;2024-01-11T00:39:45;-6.60;99.90
8400;DHT22;4237;47.030;15.396;2024-01-11T00:42:15;-6.50;99.90
8400;DHT22;4237;47.030;15.396;2024-01-11T00:44:43;-6.40;99.90
8400;DHT22;4237;47.030;15.396;2024-01-11T00:47:12;-6.40;99.90
8400;DHT22;4237;47.030;15.396;2024-01-11T00:49:41;-6.40;99.90
8400;DHT22;4237;47.030;15.396;2024-01-11T00:52:10;-6.40;99.90
8400;DHT22;4237;47.030;15.396;2024-01-11T00:54:40;-6.50;99.90
8400;DHT22;4237;47.030;15.396;2024-01-11T00:57:09;-6.50;99.90
8400;DHT22;4237;47.030;15.396;2024-01-11T00:59:37;-6.50;99.90
8400;DHT22;4237;47.030;15.396;2024-01-11T01:02:07;-6.60;99.90
8400;DHT22;4237;47.030;15.396;2024-01-11T01:04:39;-6.60;99.90
8400;DHT22;4237;47.030;15.396;2024-01-11T01:07:08;-6.70;99.90
8400;DHT22;4237;47.030;15.396;2024-01-11T01:09:37;-6.70;99.90
8400;DHT22;4237;47.030;15.396;2024-01-11T01:12:06;-6.80;99.90
8400;DHT22;4237;47.030;15.396;2024-01-11T01:14:34;-6.80;99.90
8400;DHT22;4237;47.030;15.396;2024-01-11T01:17:03;-6.80;99.90
8400;DHT22;4237;47.030;15.396;2024-01-11T01:19:32;-6.80;99.90
8400;DHT22;4237;47.030;15.396;2024-01-11T01:22:01;-6.90;99.90
8400;DHT22;4237;47.030;15.396;2024-01-11T01:24:31;-5.90;99.90
8400;DHT22;4237;47.030;15.396;2024-01-11T01:26:59;-7.00;99.90
8400;DHT22;4237;47.030;15.396;2024-01-11T01:29:28;-7.00;99.90
8400;DHT22;4237;47.030;15.396;2024-01-11T01:31:56;-7.00;99.90
8400;DHT22;4237;47.030;15.396;2024-01-11T01:34:25;-7.00;99.90
8400;DHT22;4237;47.030;15.396;2024-01-11T01:36:54;-7.00;99.90
8400;DHT22;4237;47.030;15.396;2024-01-11T01:39:22;-7.00;99.90
8400;DHT22;4237;47.030;15.396;2024-01-11T01:41:51;-7.10;99.90
8400;DHT22;4237;47.030;15.396;2024-01-11T01:44:19;-7.10;99.90
8400;DHT22;4237;47.030;15.396;2024-01-11T01:46:48;-7.10;99.90
8400;DHT22;4237;47.030;15.396;2024-01-11T01:49:17;-7.10;99.90
8400;DHT22;4237;47.030;15.396;2024-01-11T01:51:48;-7.10;99.90
8400;DHT22;4237;47.030;15.396;2024-01-11T01:54:17;-7.10;99.90
8400;DHT22;4237;47.030;15.396;2024-01-11T01:56:47;-7.10;99.90
8400;DHT22;4237;47.030;15.396;2024-01-11T01:59:16;-7.20;99.90
8400;DHT22;4237;47.030;15.396;2024-01-11T02:01:46;-7.10;99.90
8400;DHT22;4237;47.030;15.396;2024-01-11T02:04:14;-7.10;99.90
8400;DHT22;4237;47.030;15.396;2024-01-11T02:06:45;-7.20;99.90
8400;DHT22;4237;47.030;15.396;2024-01-11T02:09:15;-7.20;99.90
8400;DHT22;4237;47.030;15.396;2024-01-11T02:11:45;-7.20;99.90
8400;DHT22;4237;47.030;15.396;2024-01-11T02:14:14;-7.20;99.90
8400;DHT22;4237;47.030;15.396;2024-01-11T02:16:43;-7.20;99.90
8400;DHT22;4237;47.030;15.396;2024-01-11T02:19:13;-7.20;99.90
8400;DHT22;4237;47.030;15.396;2024-01-11T02:21:42;-7.20;99.90
8400;DHT22;4237;47.030;15.396;2024-01-11T02:24:11;-7.20;99.90
8400;DHT22;4237;47.030;15.396;2024-01-11T02:29:30;-7.30;99.90
8400;DHT22;4237;47.030;15.396;2024-01-11T02:32:01;-7.30;99.90
8400;DHT22;4237;47.030;15.396;2024-01-11T02:34:30;-7.30;99.90
8400;DHT22;4237;47.030;15.396;2024-01-11T02:36:59;-7.40;99.90
8400;DHT22;4237;47.030;15.396;2024-01-11T02:39:28;-7.40;99.90
8400;DHT22;4237;47.030;15.396;2024-01-11T02:41:57;-7.30;99.90
8400;DHT22;4237;47.030;15.396;2024-01-11T02:44:26;-7.30;99.90
8400;DHT22;4237;47.030;15.396;2024-01-11T02:46:55;-7.30;99.90
8400;DHT22;4237;47.030;15.396;2024-01-11T02:49:23;-7.40;99.90
8400;DHT22;4237;47.030;15.396;2024-01-11T02:51:52;-7.40;99.90
8400;DHT22;4237;47.030;15.396;2024-01-11T02:54:20;-7.40;99.90
8400;DHT22;4237;47.030;15.396;2024-01-11T02:56:49;-7.40;99.90
8400;DHT22;4237;47.030;15.396;2024-01-11T02:59:17;-7.40;99.90
8400;DHT22;4237;47.030;15.396;2024-01-11T03:01:46;-7.30;99.90
8400;DHT22;4237;47.030;15.396;2024-01-11T03:04:15;-7.30;99.90
8400;DHT22;4237;47.030;15.396;2024-01-11T03:06:44;-7.30;99.90
8400;DHT22;4237;47.030;15.396;2024-01-11T03:09:12;-7.40;99.90
8400;DHT22;4237;47.030;15.396;2024-01-11T03:11:41;-7.40;99.90
8400;DHT22;4237;47.030;15.396;2024-01-11T03:14:10;-7.40;99.90
8400;DHT22;4237;47.030;15.396;2024-01-11T03:16:38;-7.40;99.90
8400;DHT22;4237;47.030;15.396;2024-01-11T03:19:07;-7.40;99.90
8400;DHT22;4237;47.030;15.396;2024-01-11T03:21:40;-7.50;99.90
8400;DHT22;4237;47.030;15.396;2024-01-11T03:24:06;-7.50;99.90
8400;DHT22;4237;47.030;15.396;2024-01-11T03:26:34;-7.50;99.90
8400;DHT22;4237;47.030;15.396;2024-01-11T03:29:03;-7.60;99.90
8400;DHT22;4237;47.030;15.396;2024-01-11T03:31:31;-7.60;99.90
8400;DHT22;4237;47.030;15.396;2024-01-11T03:34:00;-7.60;99.90
8400;DHT22;4237;47.030;15.396;2024-01-11T03:36:29;-7.70;99.90
8400;DHT22;4237;47.030;15.396;2024-01-11T03:38:57;-7.60;99.90
8400;DHT22;4237;47.030;15.396;2024-01-11T03:41:26;-7.60;99.90
8400;DHT22;4237;47.030;15.396;2024-01-11T03:43:54;-7.50;99.90
8400;DHT22;4237;47.030;15.396;2024-01-11T03:46:23;-7.50;99.90
8400;DHT22;4237;47.030;15.396;2024-01-11T03:48:51;-7.50;99.90
8400;DHT22;4237;47.030;15.396;2024-01-11T03:51:20;-7.60;99.90
8400;DHT22;4237;47.030;15.396;2024-01-11T03:53:48;-7.60;99.90
8400;DHT22;4237;47.030;15.396;2024-01-11T03:56:17;-7.70;99.90
8400;DHT22;4237;47.030;15.396;2024-01-11T03:58:47;-7.70;99.90
8400;DHT22;4237;47.030;15.396;2024-01-11T04:01:15;-7.70;99.90
8400;DHT22;4237;47.030;15.396;2024-01-11T04:03:44;-6.70;99.90
8400;DHT22;4237;47.030;15.396;2024-01-11T04:06:24;-7.80;99.90
8400;DHT22;4237;47.030;15.396;2024-01-11T04:08:53;-6.90;99.90
8400;DHT22;4237;47.030;15.396;2024-01-11T04:11:22;-7.90;99.90
8400;DHT22;4237;47.030;15.396;2024-01-11T04:13:51;-7.40;99.90
8400;DHT22;4237;47.030;15.396;2024-01-11T04:16:20;-8.00;99.90
8400;DHT22;4237;47.030;15.396;2024-01-11T04:18:49;-8.00;99.90
8400;DHT22;4237;47.030;15.396;2024-01-11T04:21:22;-8.00;99.90
8400;DHT22;4237;47.030;15.396;2024-01-11T04:23:51;-8.00;99.90
8400;DHT22;4237;47.030;15.396;2024-01-11T04:26:19;-8.00;99.90
8400;DHT22;4237;47.030;15.396;2024-01-11T04:28:49;-7.90;99.90
8400;DHT22;4237;47.030;15.396;2024-01-11T04:31:17;-8.00;99.90
8400;DHT22;4237;47.030;15.396;2024-01-11T04:33:46;-7.90;99.90
8400;DHT22;4237;47.030;15.396;2024-01-11T04:36:15;-8.00;99.90
8400;DHT22;4237;47.030;15.396;2024-01-11T04:38:43;-8.00;99.90
8400;DHT22;4237;47.030;15.396;2024-01-11T04:41:13;-8.00;99.90
8400;DHT22;4237;47.030;15.396;2024-01-11T04:43:43;-8.00;99.90
8400;DHT22;4237;47.030;15.396;2024-01-11T04:46:17;-8.00;99.90
8400;DHT22;4237;47.030;15.396;2024-01-11T04:48:46;-8.00;99.90
8400;DHT22;4237;47.030;15.396;2024-01-11T04:51:16;-8.00;99.90
8400;DHT22;4237;47.030;15.396;2024-01-11T04:53:45;-8.10;99.90
8400;DHT22;4237;47.030;15.396;2024-01-11T04:56:16;-8.10;99.90
8400;DHT22;4237;47.030;15.396;2024-01-11T04:58:45;-8.10;99.90
8400;DHT22;4237;47.030;15.396;2024-01-11T05:01:15;-8.10;99.90
8400;DHT22;4237;47.030;15.396;2024-01-11T05:03:45;-8.10;99.90
8400;DHT22;4237;47.030;15.396;2024-01-11T05:06:17;-8.10;99.90
8400;DHT22;4237;47.030;15.396;2024-01-11T05:08:52;-8.10;99.90
8400;DHT22;4237;47.030;15.396;2024-01-11T05:11:22;-8.10;99.90
8400;DHT22;4237;47.030;15.396;2024-01-11T05:13:53;-8.10;99.90
8400;DHT22;4237;47.030;15.396;2024-01-11T05:16:24;-8.10;99.90
8400;DHT22;4237;47.030;15.396;2024-01-11T05:18:54;-8.10;99.90
8400;DHT22;4237;47.030;15.396;2024-01-11T05:21:23;-8.10;99.90
8400;DHT22;4237;47.030;15.396;2024-01-11T05:23:53;-8.10;99.90
8400;DHT22;4237;47.030;15.396;2024-01-11T05:26:21;-8.00;99.90
8400;DHT22;4237;47.030;15.396;2024-01-11T05:28:50;-8.00;99.90
8400;DHT22;4237;47.030;15.396;2024-01-11T05:31:19;-8.00;99.90
8400;DHT22;4237;47.030;15.396;2024-01-11T05:33:48;-7.90;99.90
8400;DHT22;4237;47.030;15.396;2024-01-11T05:36:16;-7.90;99.90
8400;DHT22;4237;47.030;15.396;2024-01-11T05:38:45;-8.00;99.90
8400;DHT22;4237;47.030;15.396;2024-01-11T05:41:14;-9.10;99.90
8400;DHT22;4237;47.030;15.396;2024-01-11T05:43:42;-8.00;99.90
8400;DHT22;4237;47.030;15.396;2024-01-11T05:46:11;-6.80;99.90
8400;DHT22;4237;47.030;15.396;2024-01-11T05:48:40;-8.00;99.90
8400;DHT22;4237;47.030;15.396;2024-01-11T05:51:09;-8.10;99.90
8400;DHT22;4237;47.030;15.396;2024-01-11T05:53:38;-8.00;99.90
8400;DHT22;4237;47.030;15.396;2024-01-11T05:56:10;-7.90;99.90
8400;DHT22;4237;47.030;15.396;2024-01-11T05:58:39;-8.00;99.90
8400;DHT22;4237;47.030;15.396;2024-01-11T06:01:08;-8.00;99.90
8400;DHT22;4237;47.030;15.396;2024-01-11T06:03:37;-8.00;99.90
8400;DHT22;4237;47.030;15.396;2024-01-11T06:06:06;-8.10;99.90
8400;DHT22;4237;47.030;15.396;2024-01-11T06:08:35;-8.10;99.90
8400;DHT22;4237;47.030;15.396;2024-01-11T06:11:04;-8.10;99.90
8400;DHT22;4237;47.030;15.396;2024-01-11T06:13:33;-8.20;99.90
8400;DHT22;4237;47.030;15.396;2024-01-11T06:16:01;-9.50;99.90
8400;DHT22;4237;47.030;15.396;2024-01-11T06:18:30;-8.10;99.90
8400;DHT22;4237;47.030;15.396;2024-01-11T06:20:59;-8.00;99.90
8400;DHT22;4237;47.030;15.396;2024-01-11T06:23:27;-7.90;99.90
8400;DHT22;4237;47.030;15.396;2024-01-11T06:25:56;-7.80;99.90
8400;DHT22;4237;47.030;15.396;2024-01-11T06:28:24;-7.40;99.90
8400;DHT22;4237;47.030;15.396;2024-01-11T06:30:53;-7.80;99.90
8400;DHT22;4237;47.030;15.396;2024-01-11T06:33:22;-7.90;99.90
8400;DHT22;4237;47.030;15.396;2024-01-11T06:35:50;-7.90;99.90
8400;DHT22;4237;47.030;15.396;2024-01-11T06:38:19;-7.90;99.90
8400;DHT22;4237;47.030;15.396;2024-01-11T06:40:48;-7.80;99.90
8400;DHT22;4237;47.030;15.396;2024-01-11T06:43:17;-7.80;99.90
8400;DHT22;4237;47.030;15.396;2024-01-11T06:45:45;-7.80;99.90
8400;DHT22;4237;47.030;15.396;2024-01-11T06:48:14;-7.70;99.90
8400;DHT22;4237;47.030;15.396;2024-01-11T06:50:43;-7.70;99.90
8400;DHT22;4237;47.030;15.396;2024-01-11T06:53:12;-7.60;99.90
8400;DHT22;4237;47.030;15.396;2024-01-11T06:55:41;-7.60;99.90
8400;DHT22;4237;47.030;15.396;2024-01-11T06:58:11;-7.50;99.90
8400;DHT22;4237;47.030;15.396;2024-01-11T07:00:39;-7.50;99.90
8400;DHT22;4237;47.030;15.396;2024-01-11T07:03:10;-7.50;99.90
8400;DHT22;4237;47.030;15.396;2024-01-11T07:05:38;-7.40;99.90
8400;DHT22;4237;47.030;15.396;2024-01-11T07:08:09;-7.40;99.90
8400;DHT22;4237;47.030;15.396;2024-01-11T07:10:38;-7.30;99.90
8400;DHT22;4237;47.030;15.396;2024-01-11T07:13:06;-7.20;99.90
8400;DHT22;4237;47.030;15.396;2024-01-11T07:15:36;-7.10;99.90
8400;DHT22;4237;47.030;15.396;2024-01-11T07:18:05;-7.00;99.90
8400;DHT22;4237;47.030;15.396;2024-01-11T07:20:33;-6.70;99.90
8400;DHT22;4237;47.030;15.396;2024-01-11T07:23:02;-6.50;99.90
8400;DHT22;4237;47.030;15.396;2024-01-11T07:25:31;-6.40;99.90
8400;DHT22;4237;47.030;15.396;2024-01-11T07:28:02;-6.10;99.90
8400;DHT22;4237;47.030;15.396;2024-01-11T07:30:31;-5.80;99.90
8400;DHT22;4237;47.030;15.396;2024-01-11T07:32:59;-5.20;99.90
8400;DHT22;4237;47.030;15.396;2024-01-11T07:35:28;-3.60;99.90
8400;DHT22;4237;47.030;15.396;2024-01-11T07:37:56;-1.40;99.90
8400;DHT22;4237;47.030;15.396;2024-01-11T07:40:25;0.00;99.90
8400;DHT22;4237;47.030;15.396;2024-01-11T07:42:53;1.50;99.90
8400;DHT22;4237;47.030;15.396;2024-01-11T07:45:22;2.50;99.90
8400;DHT22;4237;47.030;15.396;2024-01-11T07:47:51;3.60;99.90
8400;DHT22;4237;47.030;15.396;2024-01-11T07:50:19;4.50;99.90
8400;DHT22;4237;47.030;15.396;2024-01-11T07:52:48;5.30;99.90
8400;DHT22;4237;47.030;15.396;2024-01-11T07:55:17;5.90;99.90
8400;DHT22;4237;47.030;15.396;2024-01-11T07:57:45;6.20;99.90
8400;DHT22;4237;47.030;15.396;2024-01-11T08:00:14;6.30;99.90
8400;DHT22;4237;47.030;15.396;2024-01-11T08:02:43;6.70;99.90
8400;DHT22;4237;47.030;15.396;2024-01-11T08:05:11;6.60;99.90
8400;DHT22;4237;47.030;15.396;2024-01-11T08:07:40;7.10;99.90
8400;DHT22;4237;47.030;15.396;2024-01-11T08:10:12;6.90;99.90
8400;DHT22;4237;47.030;15.396;2024-01-11T08:12:40;7.80;99.90
8400;DHT22;4237;47.030;15.396;2024-01-11T08:15:09;8.10;99.90
8400;DHT22;4237;47.030;15.396;2024-01-11T08:17:44;9.00;99.90
8400;DHT22;4237;47.030;15.396;2024-01-11T08:20:13;8.90;99.90
8400;DHT22;4237;47.030;15.396;2024-01-11T08:22:42;8.90;99.90
8400;DHT22;4237;47.030;15.396;2024-01-11T08:25:16;9.30;99.90
8400;DHT22;4237;47.030;15.396;2024-01-11T08:27:45;9.60;99.90
8400;DHT22;4237;47.030;15.396;2024-01-11T08:30:14;9.70;99.90
8400;DHT22;4237;47.030;15.396;2024-01-11T08:32:43;9.50;99.90
8400;DHT22;4237;47.030;15.396;2024-01-11T08:35:12;9.90;99.90
8400;DHT22;4237;47.030;15.396;2024-01-11T08:37:40;9.50;99.90
8400;DHT22;4237;47.030;15.396;2024-01-11T08:40:09;10.10;99.90
8400;DHT22;4237;47.030;15.396;2024-01-11T08:42:38;10.90;99.90
8400;DHT22;4237;47.030;15.396;2024-01-11T08:45:09;11.30;99.90
8400;DHT22;4237;47.030;15.396;2024-01-11T08:47:37;10.90;99.90
8400;DHT22;4237;47.030;15.396;2024-01-11T08:50:06;10.90;99.90
8400;DHT22;4237;47.030;15.396;2024-01-11T08:52:35;10.90;99.90
8400;DHT22;4237;47.030;15.396;2024-01-11T08:55:06;11.50;99.30
8400;DHT22;4237;47.030;15.396;2024-01-11T08:57:35;11.60;99.00
8400;DHT22;4237;47.030;15.396;2024-01-11T09:00:05;11.60;98.90
8400;DHT22;4237;47.030;15.396;2024-01-11T09:02:36;11.40;98.80
8400;DHT22;4237;47.030;15.396;2024-01-11T09:05:05;12.20;98.20
8400;DHT22;4237;47.030;15.396;2024-01-11T09:07:34;12.60;97.10
8400;DHT22;4237;47.030;15.396;2024-01-11T09:10:03;12.50;97.00
8400;DHT22;4237;47.030;15.396;2024-01-11T09:12:32;12.30;97.00
8400;DHT22;4237;47.030;15.396;2024-01-11T09:15:01;12.30;96.90
8400;DHT22;4237;47.030;15.396;2024-01-11T09:17:30;12.40;96.80
8400;DHT22;4237;47.030;15.396;2024-01-11T09:20:00;12.20;96.50
8400;DHT22;4237;47.030;15.396;2024-01-11T09:22:28;12.50;96.70
8400;DHT22;4237;47.030;15.396;2024-01-11T09:24:57;12.30;96.20
8400;DHT22;4237;47.030;15.396;2024-01-11T09:27:25;12.60;96.90
8400;DHT22;4237;47.030;15.396;2024-01-11T09:29:54;13.00;96.60
8400;DHT22;4237;47.030;15.396;2024-01-11T09:32:22;13.60;95.80
8400;DHT22;4237;47.030;15.396;2024-01-11T09:34:51;12.80;95.80
8400;DHT22;4237;47.030;15.396;2024-01-11T09:37:19;12.90;96.30
8400;DHT22;4237;47.030;15.396;2024-01-11T09:39:48;13.10;95.70
8400;DHT22;4237;47.030;15.396;2024-01-11T09:42:18;13.90;96.10
8400;DHT22;4237;47.030;15.396;2024-01-11T09:44:47;14.20;95.50
8400;DHT22;4237;47.030;15.396;2024-01-11T09:47:16;13.90;94.50
8400;DHT22;4237;47.030;15.396;2024-01-11T09:49:45;14.10;94.90
8400;DHT22;4237;47.030;15.396;2024-01-11T09:52:15;14.00;94.50
8400;DHT22;4237;47.030;15.396;2024-01-11T09:54:44;14.20;94.50
8400;DHT22;4237;47.030;15.396;2024-01-11T09:57:15;14.40;94.50
8400;DHT22;4237;47.030;15.396;2024-01-11T09:59:45;15.20;93.90
8400;DHT22;4237;47.030;15.396;2024-01-11T10:02:14;15.80;93.30
8400;DHT22;4237;47.030;15.396;2024-01-11T10:04:43;14.40;93.80
8400;DHT22;4237;47.030;15.396;2024-01-11T10:07:11;15.10;93.60
8400;DHT22;4237;47.030;15.396;2024-01-11T10:09:42;15.00;93.60
8400;DHT22;4237;47.030;15.396;2024-01-11T10:12:11;14.70;94.90
8400;DHT22;4237;47.030;15.396;2024-01-11T10:14:40;14.70;94.20
8400;DHT22;4237;47.030;15.396;2024-01-11T10:17:08;14.70;93.90
8400;DHT22;4237;47.030;15.396;2024-01-11T10:19:37;14.90;93.60
8400;DHT22;4237;47.030;15.396;2024-01-11T10:22:06;16.30;93.30
8400;DHT22;4237;47.030;15.396;2024-01-11T10:24:34;16.30;92.40
8400;DHT22;4237;47.030;15.396;2024-01-11T10:27:04;16.50;92.90
8400;DHT22;4237;47.030;15.396;2024-01-11T10:29:34;16.90;92.10
8400;DHT22;4237;47.030;15.396;2024-01-11T10:32:05;16.70;92.30
8400;DHT22;4237;47.030;15.396;2024-01-11T10:34:33;17.20;92.20
8400;DHT22;4237;47.030;15.396;2024-01-11T10:37:04;16.90;92.10
8400;DHT22;4237;47.030;15.396;2024-01-11T10:39:33;15.40;92.50
8400;DHT22;4237;47.030;15.396;2024-01-11T10:42:05;15.30;93.40
8400;DHT22;4237;47.030;15.396;2024-01-11T10:44:35;16.40;92.80
8400;DHT22;4237;47.030;15.396;2024-01-11T10:47:07;16.60;92.50
8400;DHT22;4237;47.030;15.396;2024-01-11T10:49:39;17.10;91.40
8400;DHT22;4237;47.030;15.396;2024-01-11T10:52:11;17.60;91.20
8400;DHT22;4237;47.030;15.396;2024-01-11T10:54:41;18.50;91.40
8400;DHT22;4237;47.030;15.396;2024-01-11T10:57:12;19.80;90.00
8400;DHT22;4237;47.030;15.396;2024-01-11T10:59:41;19.00;88.80
8400;DHT22;4237;47.030;15.396;2024-01-11T11:02:12;18.40;89.30
8400;DHT22;4237;47.030;15.396;2024-01-11T11:04:44;18.00;89.70
8400;DHT22;4237;47.030;15.396;2024-01-11T11:07:14;17.80;89.70
8400;DHT22;4237;47.030;15.396;2024-01-11T11:09:44;16.90;90.00
8400;DHT22;4237;47.030;15.396;2024-01-11T11:12:13;17.50;90.70
8400;DHT22;4237;47.030;15.396;2024-01-11T11:14:43;17.30;90.00
8400;DHT22;4237;47.030;15.396;2024-01-11T11:17:14;18.50;90.10
8400;DHT22;4237;47.030;15.396;2024-01-11T11:19:43;18.70;89.20
8400;DHT22;4237;47.030;15.396;2024-01-11T11:22:13;18.80;89.90
8400;DHT22;4237;47.030;15.396;2024-01-11T11:24:43;17.50;89.10
8400;DHT22;4237;47.030;15.396;2024-01-11T11:27:15;17.20;89.80
8400;DHT22;4237;47.030;15.396;2024-01-11T11:29:48;18.30;89.80
8400;DHT22;4237;47.030;15.396;2024-01-11T11:32:17;17.60;89.30
8400;DHT22;4237;47.030;15.396;2024-01-11T11:34:47;15.60;90.70
8400;DHT22;4237;47.030;15.396;2024-01-11T11:37:23;14.50;92.10
8400;DHT22;4237;47.030;15.396;2024-01-11T11:39:52;14.60;92.60
8400;DHT22;4237;47.030;15.396;2024-01-11T11:42:22;15.10;92.10
8400;DHT22;4237;47.030;15.396;2024-01-11T11:44:52;13.60;93.30
8400;DHT22;4237;47.030;15.396;2024-01-11T11:47:22;12.70;95.30
8400;DHT22;4237;47.030;15.396;2024-01-11T11:52:39;15.70;91.70
8400;DHT22;4237;47.030;15.396;2024-01-11T11:55:09;14.00;92.80
8400;DHT22;4237;47.030;15.396;2024-01-11T11:57:38;14.80;92.70
8400;DHT22;4237;47.030;15.396;2024-01-11T12:00:07;15.10;92.10
8400;DHT22;4237;47.030;15.396;2024-01-11T12:02:38;15.60;91.50
8400;DHT22;4237;47.030;15.396;2024-01-11T12:05:08;16.00;91.60
8400;DHT22;4237;47.030;15.396;2024-01-11T12:07:36;16.90;90.90
8400;DHT22;4237;47.030;15.396;2024-01-11T12:10:06;15.70;90.70
8400;DHT22;4237;47.030;15.396;2024-01-11T12:12:36;15.40;91.30
8400;DHT22;4237;47.030;15.396;2024-01-11T12:15:06;15.00;91.50
8400;DHT22;4237;47.030;15.396;2024-01-11T12:17:35;15.20;91.50
8400;DHT22;4237;47.030;15.396;2024-01-11T12:20:04;17.00;90.40
8400;DHT22;4237;47.030;15.396;2024-01-11T12:22:33;18.10;88.90
8400;DHT22;4237;47.030;15.396;2024-01-11T12:25:02;18.30;87.50
8400;DHT22;4237;47.030;15.396;2024-01-11T12:27:31;18.90;86.10
8400;DHT22;4237;47.030;15.396;2024-01-11T12:30:01;17.90;87.20
8400;DHT22;4237;47.030;15.396;2024-01-11T12:32:30;18.00;86.80
8400;DHT22;4237;47.030;15.396;2024-01-11T12:34:59;17.50;87.20
8400;DHT22;4237;47.030;15.396;2024-01-11T12:37:32;17.60;87.90
8400;DHT22;4237;47.030;15.396;2024-01-11T12:40:01;17.70;86.90
8400;DHT22;4237;47.030;15.396;2024-01-11T12:42:30;17.80;87.00
8400;DHT22;4237;47.030;15.396;2024-01-11T12:44:59;16.20;88.60
8400;DHT22;4237;47.030;15.396;2024-01-11T12:47:28;16.10;90.10
8400;DHT22;4237;47.030;15.396;2024-01-11T12:49:56;16.90;88.90
8400;DHT22;4237;47.030;15.396;2024-01-11T12:52:25;17.30;88.40
8400;DHT22;4237;47.030;15.396;2024-01-11T12:54:56;16.20;88.90
8400;DHT22;4237;47.030;15.396;2024-01-11T12:57:25;17.00;89.10
8400;DHT22;4237;47.030;15.396;2024-01-11T12:59:54;16.20;87.90
8400;DHT22;4237;47.030;15.396;2024-01-11T13:02:23;14.30;90.20
8400;DHT22;4237;47.030;15.396;2024-01-11T13:04:52;14.60;90.50
8400;DHT22;4237;47.030;15.396;2024-01-11T13:07:21;14.70;90.20
8400;DHT22;4237;47.030;15.396;2024-01-11T13:09:50;15.70;89.80
8400;DHT22;4237;47.030;15.396;2024-01-11T13:12:19;16.60;88.20
8400;DHT22;4237;47.030;15.396;2024-01-11T13:14:49;17.10;87.70
8400;DHT22;4237;47.030;15.396;2024-01-11T13:17:19;14.90;90.10
8400;DHT22;4237;47.030;15.396;2024-01-11T13:19:48;15.40;90.20
8400;DHT22;4237;47.030;15.396;2024-01-11T13:22:17;16.50;89.00
8400;DHT22;4237;47.030;15.396;2024-01-11T13:24:45;15.40;88.80
8400;DHT22;4237;47.030;15.396;2024-01-11T13:27:14;14.20;90.40
8400;DHT22;4237;47.030;15.396;2024-01-11T13:29:42;14.20;90.80
8400;DHT22;4237;47.030;15.396;2024-01-11T13:32:11;13.30;91.80
8400;DHT22;4237;47.030;15.396;2024-01-11T13:34:39;12.60;92.40
8400;DHT22;4237;47.030;15.396;2024-01-11T13:37:10;12.50;92.80
8400;DHT22;4237;47.030;15.396;2024-01-11T13:39:38;12.60;93.10
8400;DHT22;4237;47.030;15.396;2024-01-11T13:42:07;12.80;93.00
8400;DHT22;4237;47.030;15.396;2024-01-11T13:44:38;12.90;93.00
8400;DHT22;4237;47.030;15.396;2024-01-11T13:47:07;12.40;93.30
8400;DHT22;4237;47.030;15.396;2024-01-11T13:49:35;13.10;92.70
8400;DHT22;4237;47.030;15.396;2024-01-11T13:52:04;12.40;93.60
8400;DHT22;4237;47.030;15.396;2024-01-11T13:54:33;12.90;92.90
8400;DHT22;4237;47.030;15.396;2024-01-11T13:57:02;13.00;92.60
8400;DHT22;4237;47.030;15.396;2024-01-11T13:59:30;14.00;92.10
8400;DHT22;4237;47.030;15.396;2024-01-11T14:02:00;14.70;91.80
8400;DHT22;4237;47.030;15.396;2024-01-11T14:04:29;14.90;91.10
8400;DHT22;4237;47.030;15.396;2024-01-11T14:06:58;14.20;91.20
8400;DHT22;4237;47.030;15.396;2024-01-11T14:09:26;13.50;91.70
8400;DHT22;4237;47.030;15.396;2024-01-11T14:11:55;13.40;92.00
8400;DHT22;4237;47.030;15.396;2024-01-11T14:14:23;14.00;91.70
8400;DHT22;4237;47.030;15.396;2024-01-11T14:16:52;12.70;94.00
8400;DHT22;4237;47.030;15.396;2024-01-11T14:19:21;12.60;94.30
8400;DHT22;4237;47.030;15.396;2024-01-11T14:21:49;12.80;94.50
8400;DHT22;4237;47.030;15.396;2024-01-11T14:24:18;12.50;95.30
8400;DHT22;4237;47.030;15.396;2024-01-11T14:26:47;13.20;95.00
8400;DHT22;4237;47.030;15.396;2024-01-11T14:29:15;14.00;93.60
8400;DHT22;4237;47.030;15.396;2024-01-11T14:31:44;14.00;92.40
8400;DHT22;4237;47.030;15.396;2024-01-11T14:34:13;13.40;93.50
8400;DHT22;4237;47.030;15.396;2024-01-11T14:36:41;11.40;94.50
8400;DHT22;4237;47.030;15.396;2024-01-11T14:39:10;9.80;99.60
8400;DHT22;4237;47.030;15.396;2024-01-11T14:41:38;7.60;99.90
8400;DHT22;4237;47.030;15.396;2024-01-11T14:44:07;6.10;99.90
8400;DHT22;4237;47.030;15.396;2024-01-11T14:46:37;4.90;99.90
8400;DHT22;4237;47.030;15.396;2024-01-11T14:49:05;4.10;99.90
8400;DHT22;4237;47.030;15.396;2024-01-11T14:51:35;3.40;99.90
8400;DHT22;4237;47.030;15.396;2024-01-11T14:54:05;2.80;99.90
8400;DHT22;4237;47.030;15.396;2024-01-11T14:56:33;2.40;99.90
8400;DHT22;4237;47.030;15.396;2024-01-11T14:59:03;2.10;99.90
8400;DHT22;4237;47.030;15.396;2024-01-11T15:01:32;3.20;99.90
8400;DHT22;4237;47.030;15.396;2024-01-11T15:04:00;1.60;99.90
8400;DHT22;4237;47.030;15.396;2024-01-11T15:06:29;1.20;99.90
8400;DHT22;4237;47.030;15.396;2024-01-11T15:08:58;1.10;99.90
8400;DHT22;4237;47.030;15.396;2024-01-11T15:11:26;0.90;99.90
8400;DHT22;4237;47.030;15.396;2024-01-11T15:13:55;0.70;99.90
8400;DHT22;4237;47.030;15.396;2024-01-11T15:16:24;0.50;99.90
8400;DHT22;4237;47.030;15.396;2024-01-11T15:18:53;0.40;99.90
8400;DHT22;4237;47.030;15.396;2024-01-11T15:21:22;0.30;99.90
8400;DHT22;4237;47.030;15.396;2024-01-11T15:23:50;0.30;99.90
8400;DHT22;4237;47.030;15.396;2024-01-11T15:26:19;0.20;99.90
8400;DHT22;4237;47.030;15.396;2024-01-11T15:28:48;0.10;99.90
8400;DHT22;4237;47.030;15.396;2024-01-11T15:31:16;0.00;99.90
8400;DHT22;4237;47.030;15.396;2024-01-11T15:33:45;-0.20;99.90
8400;DHT22;4237;47.030;15.396;2024-01-11T15:36:14;-0.30;99.90
8400;DHT22;4237;47.030;15.396;2024-01-11T15:38:43;-0.50;99.90
8400;DHT22;4237;47.030;15.396;2024-01-11T15:41:11;-0.60;99.90
8400;DHT22;4237;47.030;15.396;2024-01-11T15:43:40;-0.80;99.90
8400;DHT22;4237;47.030;15.396;2024-01-11T15:46:10;-0.80;99.90
8400;DHT22;4237;47.030;15.396;2024-01-11T15:48:38;-0.90;99.90
8400;DHT22;4237;47.030;15.396;2024-01-11T15:51:07;-1.00;99.90
8400;DHT22;4237;47.030;15.396;2024-01-11T15:53:36;-1.00;99.90
8400;DHT22;4237;47.030;15.396;2024-01-11T15:56:04;-1.10;99.90
8400;DHT22;4237;47.030;15.396;2024-01-11T15:58:33;-1.10;99.90
8400;DHT22;4237;47.030;15.396;2024-01-11T16:01:02;-1.20;99.90
8400;DHT22;4237;47.030;15.396;2024-01-11T16:03:31;-1.30;99.90